Nearby METAR Reports

 

KHFD - Hartford/Brainar, Connecticut, USA
Distance from station: ESE 5mi, 8km
Updated: Sat, 16-Feb-2019 1:53pm EST
Clear
Clear
 Wind from NNW
Wind: NNW 12 mph , 19 km/h
Temperature: 39°F , 4°C
Wind Chill: 32°F , 0°C
Dew Point: 19°F , -7°C
Humidity: 45%
Barometer: 29.83 inHg , 1010.2 hPa
Clouds: Clear
Visibility: 10 miles , 16 km
2019/02/16 18:53 KHFD 161853Z 34010KT 10SM CLR 04/M07 A2983 RMK AO2 SLP100 T00441072
KBDL - Windsor Locks, Connecticut, USA
Distance from station: NNE 12mi, 20km
Updated: Sat, 16-Feb-2019 1:51pm EST
Few Clouds
Few Clouds
 Wind from NNW
Wind: NNW 13 mph , 20 km/h, Gust: 22 mph , 35 km/h
Temperature: 39°F , 4°C
Wind Chill: 31°F , -1°C
Dew Point: 19°F , -7°C
Humidity: 45%
Barometer: 29.82 inHg , 1009.8 hPa
Clouds: Few Clouds
Visibility: 10 miles , 16 km
Cloud details: Few Clouds 4500 ft
Few Clouds 20000 ft
2019/02/16 18:51 KBDL 161851Z 33011G19KT 10SM FEW045 FEW200 04/M07 A2982 RMK AO2 SLP100 T00391067
 
KMMK - Meriden, Connecticut, USA
Distance from station: SSW 18mi, 28km
Updated: Sat, 16-Feb-2019 1:53pm EST
Clear
Clear
 Wind from varies
Wind: varies 5 mph , 7 km/h, Gust: 20 mph , 31 km/h
Temperature: 41°F , 5°C
Wind Chill: 38°F , 3°C
Dew Point: 19°F , -7°C
Humidity: 42%
Barometer: 29.82 inHg , 1009.8 hPa
Clouds: Clear
Visibility: 10 miles , 16 km
2019/02/16 18:53 KMMK 161853Z AUTO VRB04G17KT 10SM CLR 05/M07 A2982 RMK AO2 SLP098 T00501072
KBAF - Westfield, Massachusetts, USA
Distance from station: N 28mi, 45km
Updated: Sat, 16-Feb-2019 1:53pm EST
Few Clouds
Few Clouds
 Wind from WNW
Wind: WNW 17 mph , 28 km/h, Gust: 25 mph , 41 km/h
Temperature: 36°F , 2°C
Wind Chill: 26°F , -3°C
Dew Point: 18°F , -8°C
Humidity: 48%
Barometer: 29.82 inHg , 1009.8 hPa
Clouds: Few Clouds
Visibility: 10 miles , 16 km
Cloud details: Few Clouds 4100 ft
2019/02/16 18:53 KBAF 161853Z 29015G22KT 10SM FEW041 02/M08 A2982 RMK AO2 SLP102 T00171078
 
KIJD - Willimantic, Connecticut, USA
Distance from station: E 29mi, 46km
Updated: Sat, 16-Feb-2019 1:52pm EST
Clear
Clear
 Wind from NNW
Wind: NNW 14 mph , 22 km/h, Gust: 22 mph , 35 km/h
Temperature: 37°F , 3°C
Wind Chill: 28°F , -2°C
Dew Point: 19°F , -7°C
Humidity: 48%
Barometer: 29.81 inHg , 1009.5 hPa
Clouds: Clear
Visibility: 10 miles , 16 km
2019/02/16 18:52 KIJD 161852Z AUTO 33012G19KT 10SM CLR 03/M07 A2981 RMK AO2 SLP095 T00331072
KOXC - Oxford/Waterbury, Connecticut, USA
Distance from station: SW 29mi, 46km
Updated: Sat, 16-Feb-2019 1:51pm EST
Clear
Clear
 Wind from NW
Wind: NW 8 mph , 13 km/h
Temperature: 37°F , 3°C
Wind Chill: 31°F , -1°C
Dew Point: 18°F , -8°C
Humidity: 45%
Barometer: 29.81 inHg , 1009.5 hPa
Clouds: Clear
Visibility: 10 miles , 16 km
2019/02/16 18:51 KOXC 161851Z 32007KT 270V350 10SM CLR 03/M08 A2981 RMK AO2 SLP110 T00281078
 
KSNC - Chester, Connecticut, USA
Distance from station: SSE 29mi, 47km
Updated: Sat, 16-Feb-2019 2:15pm EST
Clear
Clear
 Wind from NW
Wind: NW 9 mph , 15 km/h, Gust: 17 mph , 28 km/h
Temperature: 43°F , 6°C
Wind Chill: 38°F , 3°C
Dew Point: 18°F , -8°C
Humidity: 36%
Barometer: 29.80 inHg , 1009.1 hPa
Clouds: Clear
Visibility: 10 miles , 16 km
2019/02/16 19:15 KSNC 161915Z AUTO 31008G15KT 10SM CLR 06/M08 A2980 RMK AO2
KCEF - Chicopee/Westove, Massachusetts, USA
Distance from station: NNE 32mi, 52km
Updated: Sat, 16-Feb-2019 1:56pm EST
Few Clouds
Few Clouds
 Wind from WNW
Wind: WNW 14 mph , 22 km/h, Gust: 21 mph , 33 km/h
Temperature: 36°F , 2°C
Wind Chill: 27°F , -3°C
Dew Point: 18°F , -8°C
Humidity: 48%
Barometer: 29.80 inHg , 1009.1 hPa
Clouds: Few Clouds
Visibility: 10 miles , 16 km
Cloud details: Few Clouds 4500 ft
2019/02/16 18:56 KCEF 161856Z 29012G18KT 10SM FEW045 02/M08 A2980 RMK AO2A SLP099 T00231076
 
KHVN - New Haven/Tweed, Connecticut, USA
Distance from station: S 35mi, 56km
Updated: Sat, 16-Feb-2019 1:53pm EST
Few Clouds
Few Clouds
 Wind from NW
Wind: NW 14 mph , 22 km/h
Temperature: 45°F , 7°C
Wind Chill: 39°F , 4°C
Dew Point: 18°F , -8°C
Humidity: 34%
Barometer: 29.82 inHg , 1009.8 hPa
Clouds: Few Clouds
Visibility: 10 miles , 16 km
Cloud details: Few Clouds 25000 ft
2019/02/16 18:53 KHVN 161853Z 32012KT 10SM FEW250 07/M08 A2982 RMK AO2 SLP097 T00671078
KBDR - Bridgeport, Connecticut, USA
Distance from station: SSW 46mi, 74km
Updated: Sat, 16-Feb-2019 1:52pm EST
Clear
Clear
 Wind from WNW
Wind: WNW 8 mph , 13 km/h
Temperature: 45°F , 7°C
Wind Chill: 41°F , 5°C
Dew Point: 19°F , -7°C
Humidity: 37%
Barometer: 29.83 inHg , 1010.2 hPa
Clouds: Clear
Visibility: 10 miles , 16 km
2019/02/16 18:52 KBDR 161852Z 29007KT 10SM CLR 07/M07 A2983 RMK AO2 SLP100 T00671072
 
KGON - Groton/New Londo, Connecticut, USA
Distance from station: SE 46mi, 75km
Updated: Sat, 16-Feb-2019 1:56pm EST
Clear
Clear
 Wind from WNW
Wind: WNW 14 mph , 22 km/h, Gust: 20 mph , 31 km/h
Temperature: 43°F , 6°C
Wind Chill: 36°F , 2°C
Dew Point: 18°F , -8°C
Humidity: 36%
Barometer: 29.79 inHg , 1008.8 hPa
Clouds: Clear
Visibility: 10 miles , 16 km
2019/02/16 18:56 KGON 161856Z 29012G17KT 10SM CLR 06/M08 A2979 RMK AO2 SLP088 T00611078
KDXR - Danbury, Connecticut, USA
Distance from station: SW 47mi, 76km
Updated: Sat, 16-Feb-2019 1:53pm EST
Clear
Clear
 Wind from NW
Wind: NW 6 mph , 9 km/h
Temperature: 39°F , 4°C
Wind Chill: 35°F , 2°C
Dew Point: 16°F , -9°C
Humidity: 39%
Barometer: 29.83 inHg , 1010.2 hPa
Clouds: Clear
Visibility: 10 miles , 16 km
2019/02/16 18:53 KDXR 161853Z 32005KT 10SM CLR 04/M09 A2983 RMK AO2 SLP103 T00391089
 
KPSF - Pittsfield, Massachusetts, USA
Distance from station: NNW 54mi, 87km
Updated: Sat, 16-Feb-2019 1:54pm EST
Overcast
Overcast
 Wind from W
Wind: W 12 mph , 19 km/h, Gust: 21 mph , 33 km/h
Temperature: 30°F , -1°C
Wind Chill: 20°F , -7°C
Dew Point: 16°F , -9°C
Humidity: 55%
Barometer: 29.80 inHg , 1009.1 hPa
Clouds: Overcast
Visibility: 10 miles , 16 km
Cloud details: Overcast 3400 ft
2019/02/16 18:54 KPSF 161854Z AUTO 28010G18KT 260V330 10SM OVC034 M01/M09 A2980 RMK AO2 SLP103 T10111094
KWST - Westerly, Rhode Island, USA
Distance from station: ESE 56mi, 91km
Updated: Sat, 16-Feb-2019 1:53pm EST
Clear
Clear
 Wind from NW
Wind: NW 10 mph , 17 km/h, Gust: 24 mph , 39 km/h
Temperature: 45°F , 7°C
Wind Chill: 40°F , 4°C
Dew Point: 21°F , -6°C
Humidity: 39%
Barometer: 29.80 inHg , 1009.1 hPa
Clouds: Clear
Visibility: 10 miles , 16 km
2019/02/16 18:53 KWST 161853Z AUTO 31009G21KT 270V340 10SM CLR 07/M06 A2980 RMK AO2 SLP090 T00721061
 
KORH - Worcester, Massachusetts, USA
Distance from station: NE 57mi, 92km
Updated: Sat, 16-Feb-2019 1:54pm EST
Clear
Clear
 Wind from WNW
Wind: WNW 15 mph , 24 km/h, Gust: 24 mph , 39 km/h
Temperature: 34°F , 1°C
Wind Chill: 24°F , -4°C
Dew Point: 18°F , -8°C
Humidity: 51%
Barometer: 29.74 inHg , 1007.1 hPa
Clouds: Clear
Visibility: 10 miles , 16 km
2019/02/16 18:54 KORH 161854Z 29013G21KT 10SM CLR 01/M08 A2974 RMK AO2 SLP082 T00111078
KPOU - Poughkeepsie, New York, USA
Distance from station: W 60mi, 96km
Updated: Sat, 16-Feb-2019 1:53pm EST
Clear
Clear
 Wind from WNW
Wind: WNW 5 mph , 7 km/h
Temperature: 41°F , 5°C
Wind Chill: 38°F , 3°C
Dew Point: 19°F , -7°C
Humidity: 42%
Barometer: 29.84 inHg , 1010.5 hPa
Clouds: Clear
Visibility: 10 miles , 16 km
2019/02/16 18:53 KPOU 161853Z 29004KT 10SM CLR 05/M07 A2984 RMK AO2 SLP102 T00501072
 
KORE - Orange, Massachusetts, USA
Distance from station: NNE 60mi, 97km
Updated: Sat, 16-Feb-2019 1:52pm EST
Partly cloudy
Partly cloudy
 Wind from W
Wind: W 15 mph , 24 km/h, Gust: 23 mph , 37 km/h
Temperature: 37°F , 3°C
Wind Chill: 28°F , -2°C
Dew Point: 18°F , -8°C
Humidity: 45%
Barometer: 29.79 inHg , 1008.8 hPa
Clouds: Partly cloudy
Visibility: 10 miles , 16 km
Cloud details: Partly cloudy 4300 ft
2019/02/16 18:52 KORE 161852Z AUTO 28013G20KT 10SM SCT043 03/M08 A2979 RMK AO2 SLP094 T00281083
KHTO - East Hampton, New York, USA
Distance from station: SSE 62mi, 99km
Updated: Sat, 16-Feb-2019 2:15pm EST
Clear
Clear
 Wind from NW
Wind: NW 9 mph , 15 km/h, Gust: 18 mph , 30 km/h
Temperature: 41°F , 5°C
Wind Chill: 35°F , 2°C
Dew Point: 18°F , -8°C
Humidity: 39%
Barometer: 29.81 inHg , 1009.5 hPa
Clouds: Clear
Visibility: 10 miles , 16 km
2019/02/16 19:15 KHTO 161915Z AUTO 31008G16KT 280V350 10SM CLR 05/M08 A2981 RMK AO2 T00451079
 
KFOK - Westhampton Beac, New York, USA
Distance from station: S 63mi, 102km
Updated: Sat, 16-Feb-2019 1:53pm EST
Clear
Clear
 Wind from WNW
Wind: WNW 13 mph , 20 km/h, Gust: 20 mph , 31 km/h
Temperature: 43°F , 6°C
Wind Chill: 36°F , 2°C
Dew Point: 18°F , -8°C
Humidity: 36%
Barometer: 29.84 inHg , 1010.5 hPa
Clouds: Clear
Visibility: 10 miles , 16 km
2019/02/16 18:53 KFOK 161853Z 29011G17KT 10SM CLR 06/M08 A2984 RMK AO2 SLP105 T00561078
KMTP - Montauk, New York, USA
Distance from station: SE 64mi, 104km
Updated: Sat, 16-Feb-2019 1:54pm EST

 Wind from WNW
Wind: WNW 7 mph , 11 km/h
Temperature: 43°F , 6°C
Wind Chill: 39°F , 4°C
Dew Point: 21°F , -6°C
Humidity: 42%
Barometer: 29.82 inHg , 1009.8 hPa
2019/02/16 18:54 KMTP 161854Z AUTO 29006KT 06/M06 A2982 RMK AO1 SLP096 T00561056